createdAt,value
2022-10-05T00:00:01.939Z,1025.25
2022-10-05T00:10:01.274Z,1025.30
2022-10-05T00:20:00.152Z,1025.16
2022-10-05T00:30:00.993Z,1025.26
2022-10-05T00:40:01.933Z,1025.28
2022-10-05T00:50:01.046Z,1025.14
2022-10-05T01:00:01.061Z,1025.05
2022-10-05T01:10:01.252Z,1024.91
2022-10-05T01:20:00.976Z,1024.92
2022-10-05T01:30:00.139Z,1024.71
2022-10-05T01:40:01.041Z,1024.78
2022-10-05T01:50:00.819Z,1024.77
2022-10-05T02:00:01.082Z,1024.69
2022-10-05T02:10:01.160Z,1024.84
2022-10-05T02:20:01.350Z,1024.94
2022-10-05T02:30:01.035Z,1024.84
2022-10-05T02:50:00.121Z,1024.88
2022-10-05T03:00:01.286Z,1024.89
2022-10-05T03:10:02.319Z,1024.75
2022-10-05T03:20:01.101Z,1024.76
2022-10-05T03:30:00.869Z,1024.63
2022-10-05T03:40:01.766Z,1024.48
2022-10-05T03:50:01.277Z,1024.41
2022-10-05T04:00:01.096Z,1024.33
2022-10-05T04:10:00.113Z,1024.23
2022-10-05T04:20:00.171Z,1024.26
2022-10-05T04:30:01.285Z,1024.32
2022-10-05T04:40:01.073Z,1024.25
2022-10-05T04:50:01.311Z,1024.29
2022-10-05T05:00:01.023Z,1024.31
2022-10-05T05:10:01.217Z,1024.31
2022-10-05T05:20:01.314Z,1024.24
2022-10-05T05:30:01.450Z,1024.37
2022-10-05T05:40:00.986Z,1024.18
2022-10-05T05:50:06.544Z,1024.00
2022-10-05T06:00:00.127Z,1024.18
2022-10-05T06:10:01.227Z,1024.13
2022-10-05T06:20:05.164Z,1024.21
2022-10-05T06:30:01.396Z,1024.13
2022-10-05T06:40:01.430Z,1024.21
2022-10-05T06:50:00.115Z,1024.23
2022-10-05T07:00:01.280Z,1024.29
2022-10-05T07:10:01.245Z,1024.24
2022-10-05T07:20:01.296Z,1024.22
2022-10-05T07:30:01.021Z,1024.04
2022-10-05T07:40:01.669Z,1024.15
2022-10-05T07:50:00.123Z,1024.25
2022-10-05T08:00:00.184Z,1024.21
2022-10-05T08:10:01.402Z,1024.26
2022-10-05T08:30:01.237Z,1023.86
2022-10-05T08:40:01.264Z,1023.68
2022-10-05T08:50:01.127Z,1023.62
2022-10-05T09:00:00.131Z,1023.61
2022-10-05T09:10:01.816Z,1023.43
2022-10-05T09:20:00.168Z,1023.39
2022-10-05T09:30:01.176Z,1023.39
2022-10-05T09:40:01.595Z,1023.35
2022-10-05T09:50:00.988Z,1023.33
2022-10-05T10:00:01.293Z,1023.22
2022-10-05T10:10:00.991Z,1023.08
2022-10-05T10:20:00.145Z,1023.02
2022-10-05T10:30:01.032Z,1023.01
2022-10-05T10:40:01.070Z,1023.13
2022-10-05T10:50:00.147Z,1023.20
2022-10-05T11:00:01.276Z,1023.18
2022-10-05T11:10:00.998Z,1022.98
2022-10-05T11:20:03.923Z,1022.84
2022-10-05T11:30:00.143Z,1022.74
2022-10-05T11:40:01.027Z,1022.60
2022-10-05T11:50:01.274Z,1022.56
2022-10-05T12:00:00.158Z,1022.49
2022-10-05T12:10:00.995Z,1022.35
2022-10-05T12:20:01.503Z,1022.25
2022-10-05T12:30:00.973Z,1022.06
2022-10-05T12:40:01.565Z,1021.98
2022-10-05T12:50:02.770Z,1021.94
2022-10-05T13:00:01.113Z,1021.90
2022-10-05T13:10:01.084Z,1021.79
2022-10-05T13:20:01.045Z,1021.75
2022-10-05T13:30:01.041Z,1021.80
2022-10-05T13:40:01.455Z,1021.82
2022-10-05T13:50:01.749Z,1021.60
2022-10-05T14:00:00.236Z,1021.66
2022-10-05T14:10:01.295Z,1021.71
2022-10-05T14:20:01.019Z,1021.55
2022-10-05T14:30:00.941Z,1021.46
2022-10-05T14:40:03.303Z,1021.31
2022-10-05T14:50:00.149Z,1021.12
2022-10-05T15:00:00.988Z,1021.08
2022-10-05T15:10:02.545Z,1021.04
2022-10-05T15:20:01.258Z,1021.02
2022-10-05T15:30:01.058Z,1021.00
2022-10-05T15:40:00.166Z,1020.98
2022-10-05T15:50:01.249Z,1021.04
2022-10-05T16:00:01.274Z,1021.03
2022-10-05T16:10:00.130Z,1021.05
2022-10-05T16:20:01.071Z,1021.04
2022-10-05T16:30:01.451Z,1020.96
2022-10-05T16:40:00.173Z,1020.91
2022-10-05T16:50:02.206Z,1020.90
2022-10-05T17:00:01.277Z,1020.96
2022-10-05T17:10:00.149Z,1021.04
2022-10-05T17:20:01.067Z,1021.09
2022-10-05T17:30:01.892Z,1021.09
2022-10-05T17:40:01.057Z,1021.15
2022-10-05T17:50:01.074Z,1021.15
2022-10-05T18:00:01.905Z,1021.13
2022-10-05T18:10:00.946Z,1021.06
2022-10-05T18:20:01.358Z,1021.00
2022-10-05T18:30:02.849Z,1021.08
2022-10-05T18:40:00.164Z,1021.05
2022-10-05T18:50:01.488Z,1021.04
2022-10-05T19:00:00.172Z,1021.03
2022-10-05T19:10:01.049Z,1021.03
2022-10-05T19:20:01.558Z,1021.07
2022-10-05T19:30:01.012Z,1021.29
2022-10-05T19:40:02.528Z,1021.41
2022-10-05T19:50:01.235Z,1021.53
2022-10-05T20:00:01.125Z,1021.63
2022-10-05T20:10:00.994Z,1021.77
2022-10-05T20:20:01.260Z,1021.86
2022-10-05T20:30:01.559Z,1022.06
2022-10-05T20:40:02.796Z,1022.21
2022-10-05T20:50:02.006Z,1022.24
2022-10-05T21:00:01.579Z,1022.37
2022-10-05T21:10:01.439Z,1022.51
2022-10-05T21:20:02.534Z,1022.50
2022-10-05T21:30:00.136Z,1022.51
2022-10-05T21:40:00.968Z,1022.52
2022-10-05T21:50:00.132Z,1022.67
2022-10-05T22:00:01.042Z,1022.70
2022-10-05T22:10:01.038Z,1022.78
2022-10-05T22:30:01.233Z,1022.81
2022-10-05T22:40:01.299Z,1022.91
2022-10-05T22:50:01.912Z,1022.94
2022-10-05T23:00:01.312Z,1022.96
2022-10-05T23:10:00.131Z,1023.08
2022-10-05T23:20:01.319Z,1023.20
2022-10-05T23:30:00.166Z,1023.23
2022-10-05T23:40:02.125Z,1023.38
2022-10-05T23:50:00.140Z,1023.42
